createdAt,value
2019-05-29T00:01:27.309Z,93.70
2019-05-29T00:05:31.534Z,93.60
2019-05-29T00:09:35.772Z,93.80
2019-05-29T00:13:41.670Z,93.70
2019-05-29T00:17:45.836Z,93.70
2019-05-29T00:21:50.051Z,93.70
2019-05-29T00:25:54.276Z,93.70
2019-05-29T00:29:58.510Z,93.80
2019-05-29T00:34:02.735Z,93.80
2019-05-29T00:38:06.925Z,93.80
2019-05-29T00:42:11.166Z,93.70
2019-05-29T00:46:30.578Z,93.70
2019-05-29T00:50:35.063Z,93.80
2019-05-29T00:54:39.256Z,93.60
2019-05-29T00:58:49.420Z,93.70
2019-05-29T01:02:53.663Z,94.00
2019-05-29T01:06:57.873Z,93.90
2019-05-29T01:11:02.143Z,93.80
2019-05-29T01:15:07.096Z,93.70
2019-05-29T01:19:36.188Z,93.70
2019-05-29T01:23:40.379Z,93.80
2019-05-29T01:27:44.608Z,93.70
2019-05-29T01:31:48.839Z,93.70
2019-05-29T01:35:55.362Z,93.60
2019-05-29T01:39:59.588Z,93.70
2019-05-29T01:44:03.971Z,93.70
2019-05-29T01:48:08.204Z,93.70
2019-05-29T01:52:12.419Z,93.50
2019-05-29T01:56:17.590Z,93.60
2019-05-29T02:00:24.113Z,93.50
2019-05-29T02:04:28.467Z,93.50
2019-05-29T02:08:32.691Z,93.60
2019-05-29T02:12:36.920Z,93.60
2019-05-29T02:16:41.147Z,93.60
2019-05-29T02:20:45.371Z,93.70
2019-05-29T02:24:49.579Z,93.50
2019-05-29T02:28:53.807Z,93.60
2019-05-29T02:32:58.028Z,93.50
2019-05-29T02:37:02.256Z,93.40
2019-05-29T02:41:06.490Z,93.60
2019-05-29T02:45:10.893Z,93.70
2019-05-29T02:49:16.804Z,93.70
2019-05-29T02:53:22.237Z,93.60
2019-05-29T02:57:26.961Z,93.60
2019-05-29T03:01:31.830Z,93.60
2019-05-29T03:05:36.178Z,93.40
2019-05-29T03:09:40.578Z,93.60
2019-05-29T03:13:44.820Z,93.50
2019-05-29T03:17:49.067Z,93.50
2019-05-29T03:21:53.301Z,93.50
2019-05-29T03:25:57.528Z,93.60
2019-05-29T03:30:01.732Z,93.70
2019-05-29T03:34:05.937Z,93.60
2019-05-29T03:38:10.164Z,93.70
2019-05-29T03:42:14.386Z,93.50
2019-05-29T03:46:29.835Z,93.60
2019-05-29T03:50:26.313Z,93.50
2019-05-29T03:54:31.379Z,93.40
2019-05-29T03:58:37.707Z,93.60
2019-05-29T04:02:42.154Z,93.70
2019-05-29T04:06:47.421Z,99.90
2019-05-29T04:10:51.869Z,93.80
2019-05-29T04:14:56.110Z,93.70
2019-05-29T04:19:01.249Z,93.90
2019-05-29T04:23:08.186Z,99.90
2019-05-29T04:27:13.586Z,99.90
2019-05-29T04:31:17.824Z,99.90
2019-05-29T04:35:22.116Z,99.90
2019-05-29T04:39:26.348Z,99.90
2019-05-29T04:43:31.085Z,99.90
2019-05-29T04:47:37.356Z,93.80
2019-05-29T04:51:41.733Z,93.90
2019-05-29T04:55:45.956Z,93.90
2019-05-29T04:59:50.204Z,93.80
2019-05-29T05:03:54.427Z,93.80
2019-05-29T05:07:58.656Z,93.90
2019-05-29T05:12:02.894Z,94.00
2019-05-29T05:16:07.144Z,93.80
2019-05-29T05:20:11.362Z,94.00
2019-05-29T05:24:15.755Z,94.10
2019-05-29T05:28:20.004Z,94.10
2019-05-29T05:32:24.311Z,93.90
2019-05-29T05:36:28.544Z,93.90
2019-05-29T05:40:34.675Z,94.10
2019-05-29T05:44:39.075Z,94.10
2019-05-29T05:48:43.439Z,99.90
2019-05-29T05:52:47.655Z,99.90
2019-05-29T05:56:53.602Z,99.90
2019-05-29T06:00:57.730Z,99.90
2019-05-29T06:05:01.999Z,99.90
2019-05-29T06:09:07.815Z,99.90
2019-05-29T06:13:12.043Z,99.90
2019-05-29T06:17:16.238Z,99.90
2019-05-29T06:21:20.455Z,99.90
2019-05-29T06:25:24.889Z,94.70
2019-05-29T06:29:29.148Z,94.60
2019-05-29T06:33:33.470Z,94.70
2019-05-29T06:37:37.928Z,94.70
2019-05-29T06:41:42.123Z,94.90
2019-05-29T06:45:46.443Z,94.80
2019-05-29T06:49:50.676Z,94.90
2019-05-29T06:53:54.904Z,94.90
2019-05-29T06:57:59.105Z,95.00
2019-05-29T07:02:03.328Z,95.00
2019-05-29T07:06:07.820Z,95.20
2019-05-29T07:10:12.108Z,95.00
2019-05-29T07:14:16.344Z,95.10
2019-05-29T07:18:20.549Z,95.00
2019-05-29T07:22:24.779Z,95.00
2019-05-29T07:26:29.016Z,95.20
2019-05-29T07:30:33.247Z,95.10
2019-05-29T07:34:51.320Z,95.00
2019-05-29T07:38:46.130Z,94.60
2019-05-29T07:42:55.099Z,94.90
2019-05-29T07:46:55.443Z,95.20
2019-05-29T07:51:06.876Z,95.40
2019-05-29T07:55:06.539Z,95.20
2019-05-29T07:59:10.700Z,95.10
2019-05-29T08:07:18.563Z,95.00
2019-05-29T08:11:22.808Z,95.20
2019-05-29T08:15:27.057Z,95.30
2019-05-29T08:19:31.643Z,95.30
2019-05-29T08:23:35.841Z,95.30
2019-05-29T08:27:40.574Z,95.30
2019-05-29T08:31:44.899Z,95.20
2019-05-29T08:35:57.889Z,95.20
2019-05-29T08:39:55.299Z,95.10
2019-05-29T08:43:59.508Z,95.30
2019-05-29T08:48:03.772Z,95.30
2019-05-29T08:52:11.592Z,95.30
2019-05-29T08:56:15.951Z,95.20
2019-05-29T09:00:21.379Z,95.30
2019-05-29T09:04:25.585Z,95.10
2019-05-29T09:08:29.795Z,95.30
2019-05-29T09:12:34.032Z,95.60
2019-05-29T09:16:38.264Z,95.60
2019-05-29T09:21:00.846Z,95.50
2019-05-29T09:24:48.413Z,95.70
2019-05-29T09:28:52.642Z,95.80
2019-05-29T09:32:56.879Z,95.70
2019-05-29T09:37:01.122Z,95.90
2019-05-29T09:41:05.363Z,96.00
2019-05-29T09:45:09.715Z,96.00
2019-05-29T09:49:13.964Z,95.90
2019-05-29T09:53:18.195Z,95.70
2019-05-29T09:57:22.416Z,95.60
2019-05-29T10:01:26.668Z,95.70
2019-05-29T10:05:30.900Z,95.70
2019-05-29T10:09:35.103Z,95.90
2019-05-29T10:13:39.325Z,95.90
2019-05-29T10:17:43.539Z,96.00
2019-05-29T10:21:47.771Z,96.10
2019-05-29T10:25:51.998Z,95.90
2019-05-29T10:29:56.215Z,95.70
2019-05-29T10:34:00.453Z,95.90
2019-05-29T10:38:04.810Z,95.90
2019-05-29T10:42:09.035Z,95.60
2019-05-29T10:46:13.301Z,95.50
2019-05-29T10:50:17.545Z,95.60
2019-05-29T10:54:21.766Z,95.70
2019-05-29T10:58:25.996Z,95.60
2019-05-29T11:02:30.228Z,95.50
2019-05-29T11:06:34.447Z,95.30
2019-05-29T11:10:38.648Z,95.40
2019-05-29T11:14:42.902Z,95.60
2019-05-29T11:18:47.484Z,95.30
2019-05-29T11:22:51.860Z,95.70
2019-05-29T11:26:56.700Z,94.00
2019-05-29T11:31:06.288Z,95.50
2019-05-29T11:35:06.975Z,95.20
2019-05-29T11:39:11.781Z,95.20
2019-05-29T11:43:15.993Z,95.10
2019-05-29T11:47:20.228Z,95.20
2019-05-29T11:51:24.444Z,95.20
2019-05-29T11:55:28.672Z,95.30
2019-05-29T11:59:32.896Z,94.90
2019-05-29T12:03:37.132Z,94.30
2019-05-29T12:07:41.360Z,94.50
2019-05-29T12:11:45.559Z,93.80
2019-05-29T12:15:49.776Z,94.50
2019-05-29T12:19:54.230Z,94.30
2019-05-29T12:23:58.644Z,94.50
2019-05-29T12:28:03.459Z,94.30
2019-05-29T12:32:10.245Z,93.80
2019-05-29T12:36:13.847Z,94.20
2019-05-29T12:40:18.977Z,94.30
2019-05-29T12:44:23.224Z,93.50
2019-05-29T12:48:27.491Z,94.10
2019-05-29T12:52:31.722Z,94.00
2019-05-29T12:56:35.932Z,93.80
2019-05-29T13:00:40.163Z,93.60
2019-05-29T13:05:06.679Z,92.60
2019-05-29T13:08:50.388Z,93.50
2019-05-29T13:12:59.711Z,93.70
2019-05-29T13:17:00.873Z,92.80
2019-05-29T13:21:05.230Z,93.60
2019-05-29T13:25:12.121Z,93.60
2019-05-29T13:29:15.425Z,93.20
2019-05-29T13:33:19.655Z,93.10
2019-05-29T13:37:23.851Z,92.60
2019-05-29T13:41:28.088Z,92.00
2019-05-29T13:45:32.308Z,92.40
2019-05-29T13:49:36.558Z,91.00
2019-05-29T13:53:40.794Z,91.50
2019-05-29T13:57:45.051Z,90.70
2019-05-29T14:01:49.322Z,91.10
2019-05-29T14:05:53.548Z,90.20
2019-05-29T14:09:58.880Z,90.10
2019-05-29T14:14:04.136Z,89.60
2019-05-29T14:18:09.186Z,90.10
2019-05-29T14:22:15.032Z,90.40
2019-05-29T14:26:19.553Z,90.10
2019-05-29T14:30:25.658Z,90.70
2019-05-29T14:34:30.009Z,90.60
2019-05-29T14:38:34.186Z,90.30
2019-05-29T14:42:38.389Z,90.60
2019-05-29T14:46:42.632Z,90.40
2019-05-29T14:50:46.942Z,90.40
2019-05-29T14:54:51.218Z,90.00
2019-05-29T14:58:55.501Z,90.40
2019-05-29T15:02:59.641Z,90.40
2019-05-29T15:07:03.879Z,90.70
2019-05-29T15:11:08.167Z,90.20
2019-05-29T15:15:14.261Z,90.30
2019-05-29T15:19:19.179Z,90.40
2019-05-29T15:23:23.407Z,89.70
2019-05-29T15:27:27.643Z,90.30
2019-05-29T15:31:31.883Z,90.10
2019-05-29T15:35:36.130Z,90.10
2019-05-29T15:39:40.399Z,90.20
2019-05-29T15:43:44.601Z,90.00
2019-05-29T15:47:48.879Z,90.40
2019-05-29T15:51:53.155Z,90.50
2019-05-29T15:55:57.721Z,91.20
2019-05-29T16:00:02.062Z,91.20
2019-05-29T16:04:07.500Z,90.90
2019-05-29T16:08:12.025Z,90.60
2019-05-29T16:12:16.757Z,90.60
2019-05-29T16:16:21.197Z,90.50
2019-05-29T16:20:25.440Z,90.20
2019-05-29T16:24:29.653Z,90.20
2019-05-29T16:28:33.892Z,90.10
2019-05-29T16:32:38.143Z,90.30
2019-05-29T16:36:42.388Z,90.80
2019-05-29T16:40:46.617Z,91.10
2019-05-29T16:44:52.908Z,91.10
2019-05-29T16:48:57.188Z,90.80
2019-05-29T16:53:01.409Z,90.60
2019-05-29T16:57:05.823Z,90.20
2019-05-29T17:01:10.083Z,90.20
2019-05-29T17:05:15.666Z,90.00
2019-05-29T17:09:20.337Z,90.20
2019-05-29T17:13:24.786Z,90.10
2019-05-29T17:17:30.571Z,90.00
2019-05-29T17:21:35.280Z,90.00
2019-05-29T17:25:41.324Z,90.00
2019-05-29T17:29:45.529Z,90.00
2019-05-29T17:33:49.753Z,90.00
2019-05-29T17:37:54.000Z,90.00
2019-05-29T17:41:58.256Z,89.20
2019-05-29T17:46:02.512Z,89.00
2019-05-29T17:50:07.676Z,89.30
2019-05-29T17:54:12.008Z,88.70
2019-05-29T17:58:16.228Z,88.30
2019-05-29T18:02:20.472Z,88.80
2019-05-29T18:06:24.760Z,88.60
2019-05-29T18:10:28.975Z,89.00
2019-05-29T18:14:33.240Z,88.60
2019-05-29T18:18:37.550Z,88.80
2019-05-29T18:22:41.788Z,88.90
2019-05-29T18:26:47.431Z,88.90
2019-05-29T18:30:51.984Z,89.30
2019-05-29T18:34:56.799Z,89.10
2019-05-29T18:39:01.184Z,89.30
2019-05-29T18:43:05.545Z,89.40
2019-05-29T18:47:09.872Z,89.10
2019-05-29T18:51:14.114Z,89.60
2019-05-29T18:55:20.719Z,89.60
2019-05-29T18:59:25.499Z,89.70
2019-05-29T19:03:29.958Z,89.70
2019-05-29T19:07:34.219Z,89.60
2019-05-29T19:11:38.412Z,89.80
2019-05-29T19:15:48.679Z,89.50
2019-05-29T19:19:52.929Z,89.50
2019-05-29T19:23:57.278Z,89.50
2019-05-29T19:28:01.836Z,89.40
2019-05-29T19:32:06.076Z,89.40
2019-05-29T19:36:10.319Z,89.60
2019-05-29T19:40:14.739Z,89.40
2019-05-29T19:44:19.040Z,89.30
2019-05-29T19:48:24.667Z,89.20
2019-05-29T19:52:29.101Z,89.20
2019-05-29T19:56:33.854Z,89.20
2019-05-29T20:00:38.266Z,89.20
2019-05-29T20:04:42.514Z,89.20
2019-05-29T20:08:46.754Z,89.30
2019-05-29T20:12:51.045Z,89.30
2019-05-29T20:16:55.293Z,89.30
2019-05-29T20:20:59.542Z,89.20
2019-05-29T20:25:03.901Z,90.00
2019-05-29T20:29:08.156Z,89.30
2019-05-29T20:33:12.400Z,89.30
2019-05-29T20:37:16.713Z,89.30
2019-05-29T20:41:22.453Z,89.30
2019-05-29T20:45:26.728Z,89.40
2019-05-29T20:49:31.895Z,89.30
2019-05-29T20:53:37.440Z,89.50
2019-05-29T20:57:42.150Z,89.30
2019-05-29T21:01:47.627Z,89.60
2019-05-29T21:05:52.332Z,89.50
2019-05-29T21:09:56.584Z,90.10
2019-05-29T21:14:00.823Z,89.80
2019-05-29T21:18:05.038Z,89.70
2019-05-29T21:22:09.276Z,89.70
2019-05-29T21:26:13.573Z,89.70
2019-05-29T21:30:23.271Z,89.80
2019-05-29T21:34:27.534Z,89.70
2019-05-29T21:38:31.788Z,89.80
2019-05-29T21:42:36.577Z,89.60
2019-05-29T21:46:41.067Z,89.70
2019-05-29T21:50:45.510Z,89.50
2019-05-29T21:54:49.765Z,89.50
2019-05-29T21:59:03.370Z,89.40
2019-05-29T22:03:00.014Z,90.10
2019-05-29T22:07:04.386Z,89.60
2019-05-29T22:11:08.729Z,89.80
2019-05-29T22:15:13.232Z,89.30
2019-05-29T22:19:17.528Z,89.60
2019-05-29T22:23:21.815Z,89.40
2019-05-29T22:27:26.051Z,89.70
2019-05-29T22:31:30.327Z,89.60
2019-05-29T22:35:34.831Z,89.60
2019-05-29T22:39:39.205Z,89.50
2019-05-29T22:43:43.420Z,89.60
2019-05-29T22:47:47.700Z,89.60
2019-05-29T22:55:56.112Z,89.00
2019-05-29T23:00:00.343Z,89.50
2019-05-29T23:04:04.634Z,89.60
2019-05-29T23:08:08.891Z,89.60
2019-05-29T23:12:13.131Z,89.70
2019-05-29T23:16:17.464Z,89.60
2019-05-29T23:20:21.707Z,89.60
2019-05-29T23:24:25.933Z,89.70
2019-05-29T23:28:30.163Z,89.70
2019-05-29T23:32:34.408Z,89.90
2019-05-29T23:36:38.713Z,89.70
2019-05-29T23:40:43.256Z,89.90
2019-05-29T23:44:47.556Z,89.60
2019-05-29T23:48:51.795Z,89.90
2019-05-29T23:52:56.107Z,89.70
2019-05-29T23:57:04.164Z,89.60
